Los Angeles Regional Airport Weather

KWHP 171950Z 00000KT 10SM BKN045 17/07 A3021

KAPV 191256Z AUTO 05004KT 10SM FEW075 SCT090 BKN110 18/18 A2996 RMK AO2 SLP144 T01830178 $

KAVX 172040Z AUTO 25005KT 10SM SCT011 14/12 A3017 RMK AO2 T01390122

KBFL 171954Z 11004KT 10SM BKN039 BKN070 17/09 A3017 RMK AO2 SLP213 T01670089

KBUR 171953Z 26003KT 10SM FEW030 SCT050 17/09 A3017 RMK AO2 SLP208 T01670089 $

KCMA 171955Z 00000KT 10SM BKN018 OVC060 18/12 A3017 RMK AO2 SLP225 T01780117

KCNO 171953Z 28007KT 10SM SCT028 BKN100 18/11 A3019 RMK AO2 SLP219 T01830106

KEMT 171945Z 00000KT 10SM FEW060 SCT095 18/09 A3017

KFUL 172043Z 00000KT 10SM BKN027 BKN032 19/11 A3015 RMK AO2 T01890111

KHHR 172022Z 28003KT 10SM SCT026 18/11 A3016 RMK AO2 T01780111 $

KL35 172035Z AUTO 23010KT 204V264 10SM SCT029 SCT039 06/00 A3017 RMK AO2

KLAX 171953Z 24008KT 10SM FEW025 SCT050 BKN150 BKN180 17/12 A3018 RMK AO2 SLP218 T01720117

KLGB 171953Z VRB05KT 10SM BKN029 18/13 A3018 RMK AO2 SLP218 T01780128 $

KONT 171953Z 23009KT 10SM FEW024 BKN065 BKN090 17/09 A3017 RMK AO2 SLP214 T01670094

KOXR 171951Z 11004KT 10SM OVC017 17/13 A3018 RMK AO2 SLP217 T01670133

KPMD 171953Z 24016KT 10SM FEW050 BKN060 15/06 A3015 RMK AO2 SLP203 T01500061

KPOC 171947Z 00000KT 10SM BKN065 16/10 A3019

KRAL 171953Z VRB03KT 10SM BKN024 16/09 A3018 RMK AO2 SLP210 T01610094

KSMO 171951Z 22009KT 10SM FEW085 19/11 A3018 RMK AO2 SLP218 T01940106

KSNA 171953Z 19006KT 10SM SCT020 BKN032 17/12 A3018 RMK AO2 SLP220 T01720122

KTOA 171947Z 00000KT 10SM SCT025 BKN070 17/12 A3018

KTRM 171952Z AUTO 00000KT 10SM CLR 18/05 A3011 RMK AO2 SLP195 T01830050

KVNY 171951Z 34003KT 10SM OVC028 18/09 A3016 RMK AO2 SLP210 T01780094

KWJF 171956Z 24019KT 10SM OVC060 15/07 A3015 RMK AO2 SLP210 T01500067



How to read METARs